Chilcompton, United Kingdom
Current Conditions -  °F | °C
As of 4:50 PM on Friday 28 Nov 2014 (Local Time) from EGGD Reporting Station
Broken Clouds Broken Clouds  
Wind Chill: 50°   Ceiling: 900
Heat Index: 50°   Visibility: 5mi
Dew Point: 48°   Wind: 14mph
Humidity: 94%   Direction: 60°ENE
Pressure: 29.59"   Gusts: NA
Location:  51.26°N, 2.51°W
Report Text: EGGD 281650Z 06012KT 8000 BKN009 10/09 Q1002
Loading
Personal Weather Stations






























Interactive Weather Map New forecast layout! Learn more

10-Day Weather Forecast

Advertisements
Track Severe Weather on mobile